Time;durP1;ratioP1;P1;durP2;ratioP2;P2;SDS_P1;SDS_P2;PMS_P1;PMS_P2;Temp;Humidity;BMP_temperature;BMP_pressure;BME280_temperature;BME280_humidity;BME280_pressure;Samples;Min_cycle;Max_cycle;Signal;HPM_P1;HPM_P2
2022/01/19 00:00:08;;;;;;;59.73;27.20;;;6.50;99.90;;;;;;5092492;28;20499;-71
2022/01/19 00:02:34;;;;;;;54.73;25.97;;;6.40;99.90;;;;;;5075666;28;20085;-71
2022/01/19 00:04:59;;;;;;;54.60;24.77;;;6.50;99.90;;;;;;5075569;28;20032;-71
2022/01/19 00:07:25;;;;;;;52.57;24.37;;;6.50;99.90;;;;;;5075562;28;20057;-70
2022/01/19 00:09:51;;;;;;;54.73;24.87;;;6.50;99.90;;;;;;5093483;28;20043;-71
2022/01/19 00:12:16;;;;;;;51.03;24.07;;;6.50;99.90;;;;;;5092101;28;20040;-71
2022/01/19 00:14:42;;;;;;;54.27;25.53;;;6.50;99.90;;;;;;5093465;28;20039;-71
2022/01/19 00:17:07;;;;;;;60.73;25.87;;;6.50;99.90;;;;;;5075397;28;20073;-71
2022/01/19 00:19:33;;;;;;;62.47;25.97;;;6.50;99.90;;;;;;5092469;28;20105;-71
2022/01/19 00:21:58;;;;;;;61.07;26.87;;;6.50;99.90;;;;;;5092234;28;20117;-71
2022/01/19 00:24:24;;;;;;;51.63;24.00;;;6.50;99.90;;;;;;5093453;28;20035;-71
2022/01/19 00:26:50;;;;;;;58.03;24.97;;;6.50;99.90;;;;;;5092191;28;20028;-71
2022/01/19 00:29:15;;;;;;;59.33;25.13;;;6.50;99.90;;;;;;5074991;28;20032;-70
2022/01/19 00:31:41;;;;;;;54.80;25.60;;;6.50;99.90;;;;;;5075140;28;20036;-71
2022/01/19 00:34:07;;;;;;;50.83;24.90;;;6.50;99.90;;;;;;5092066;28;20032;-71
2022/01/19 00:36:32;;;;;;;57.67;25.17;;;6.50;99.90;;;;;;5091999;28;20043;-71
2022/01/19 00:38:58;;;;;;;57.93;25.17;;;6.50;99.90;;;;;;5092107;28;20032;-71
2022/01/19 00:41:23;;;;;;;55.27;25.80;;;6.50;99.90;;;;;;5075084;28;20038;-71
2022/01/19 00:43:49;;;;;;;49.80;24.33;;;6.60;99.90;;;;;;5092103;28;20061;-71
2022/01/19 00:46:15;;;;;;;55.50;23.90;;;6.50;99.90;;;;;;5074981;28;20051;-71
2022/01/19 00:48:41;;;;;;;58.03;25.50;;;6.50;99.90;;;;;;5091829;28;20053;-71
2022/01/19 00:51:07;;;;;;;57.37;25.83;;;6.40;99.90;;;;;;5092066;28;20021;-78
2022/01/19 00:53:33;;;;;;;53.03;25.07;;;6.50;99.90;;;;;;5093256;28;20024;-77
2022/01/19 00:55:58;;;;;;;53.30;23.87;;;6.40;99.90;;;;;;5075215;28;20066;-78
2022/01/19 00:58:25;;;;;;;52.00;24.57;;;6.40;99.90;;;;;;5093289;28;20021;-78
2022/01/19 01:00:51;;;;;;;58.33;24.90;;;6.40;99.90;;;;;;5093414;28;20029;-78
2022/01/19 01:03:17;;;;;;;55.30;23.93;;;6.30;99.90;;;;;;5093072;28;20016;-78
2022/01/19 01:05:44;;;;;;;52.70;23.13;;;6.30;99.90;;;;;;5091895;28;20021;-77
2022/01/19 01:08:10;;;;;;;54.70;24.80;;;6.30;99.90;;;;;;5093019;28;20108;-77
2022/01/19 01:10:42;;;;;;;48.90;23.67;;;6.20;99.90;;;;;;5092862;28;20123;-77
2022/01/19 01:15:23;;;;;;;56.03;24.57;;;6.10;99.90;;;;;;5091922;28;20074;-77
2022/01/19 01:16:18;;;;;;;54.90;22.97;;;6.10;99.90;;;;;;5092872;28;20028;-77
2022/01/19 01:18:44;;;;;;;53.17;22.53;;;6.00;99.90;;;;;;5091898;28;20032;-77
2022/01/19 01:21:09;;;;;;;53.10;22.77;;;6.00;99.90;;;;;;5091666;28;20032;-78
2022/01/19 01:23:35;;;;;;;58.50;22.43;;;5.90;99.90;;;;;;5093065;28;20141;-77
2022/01/19 01:26:02;;;;;;;53.00;22.83;;;5.90;99.90;;;;;;5091777;28;20093;-77
2022/01/19 01:28:28;;;;;;;45.77;22.80;;;5.80;99.90;;;;;;5092716;28;20020;-77
2022/01/19 01:30:54;;;;;;;49.23;22.67;;;5.70;99.90;;;;;;5091527;28;20495;-78
2022/01/19 01:33:20;;;;;;;48.10;22.33;;;5.70;99.90;;;;;;5092819;28;20059;-77
2022/01/19 01:35:47;;;;;;;49.03;22.97;;;5.60;99.90;;;;;;5074599;28;20027;-77
2022/01/19 01:38:13;;;;;;;47.07;22.73;;;5.60;99.90;;;;;;5092602;28;20019;-77
2022/01/19 01:40:39;;;;;;;42.10;20.07;;;5.50;99.90;;;;;;5091452;28;20055;-77
2022/01/19 01:43:08;;;;;;;43.83;20.47;;;5.50;99.90;;;;;;5095195;28;20047;-78
2022/01/19 01:45:38;;;;;;;46.23;22.40;;;5.40;99.90;;;;;;5095251;28;20027;-78
2022/01/19 01:48:14;;;;;;;51.27;21.97;;;5.40;99.90;;;;;;5095151;28;20436;-77
2022/01/19 01:53:27;;;;;;;48.43;21.83;;;5.30;99.90;;;;;;5096177;28;20036;-77
2022/01/19 01:56:07;;;;;;;59.47;24.03;;;5.30;99.90;;;;;;5096141;28;20040;-77
2022/01/19 01:58:35;;;;;;;60.67;23.77;;;5.30;99.90;;;;;;5094797;28;20538;-77
2022/01/19 02:01:01;;;;;;;68.03;24.07;;;5.20;99.90;;;;;;5096063;28;20031;-77
2022/01/19 02:03:28;;;;;;;68.97;23.87;;;5.30;99.90;;;;;;5096207;28;20495;-77
2022/01/19 02:09:07;;;;;;;72.87;22.03;;;5.30;99.90;;;;;;5095142;28;20039;-77
2022/01/19 02:15:49;;;;;;;55.40;19.90;;;5.30;99.90;;;;;;5094393;28;20389;-77
2022/01/19 02:22:59;;;;;;;45.83;18.43;;;5.20;99.90;;;;;;5096022;28;20026;-78
2022/01/19 02:25:29;;;;;;;39.63;17.20;;;5.10;99.90;;;;;;5094296;28;20024;-77
2022/01/19 02:41:37;;;;;;;41.75;19.45;;;4.90;99.90;;;;;;5094457;28;20384;-77
2022/01/19 02:44:03;;;;;;;42.63;20.30;;;4.90;99.90;;;;;;5077406;28;20039;-77
2022/01/19 02:49:09;;;;;;;44.27;20.77;;;4.90;99.90;;;;;;5095060;28;20035;-71
2022/01/19 02:49:26;;;;;;;45.23;18.87;;;4.90;99.90;;;;;;5093994;28;20036;-70
2022/01/19 02:51:54;;;;;;;48.40;20.83;;;4.90;99.90;;;;;;5094856;28;20460;-71
2022/01/19 02:54:24;;;;;;;42.87;20.00;;;4.80;99.90;;;;;;5094880;28;20020;-70
2022/01/19 02:56:54;;;;;;;40.23;18.87;;;4.80;99.90;;;;;;5093812;28;20028;-70
2022/01/19 02:59:28;;;;;;;44.17;18.50;;;4.70;99.90;;;;;;5093496;28;20395;-71
2022/01/19 03:10:07;;;;;;;42.20;19.52;;;4.60;99.90;;;;;;5094547;28;20039;-77
2022/01/19 03:12:33;;;;;;;41.87;18.87;;;4.60;99.90;;;;;;5094686;28;20036;-78
2022/01/19 03:14:58;;;;;;;40.53;19.73;;;4.50;99.90;;;;;;5076433;28;20464;-78
2022/01/19 03:17:24;;;;;;;42.63;19.93;;;4.50;99.90;;;;;;5093433;28;20032;-78
2022/01/19 03:19:50;;;;;;;41.97;19.17;;;4.40;99.90;;;;;;5094511;28;20531;-71
2022/01/19 03:22:24;;;;;;;41.33;21.27;;;4.40;99.90;;;;;;5076376;28;20036;-70
2022/01/19 03:24:51;;;;;;;47.65;20.77;;;4.40;99.90;;;;;;5093341;28;20118;-70
2022/01/19 03:27:18;;;;;;;41.00;19.13;;;4.40;99.90;;;;;;5076516;28;20032;-77
2022/01/19 03:29:44;;;;;;;47.73;21.40;;;4.40;99.90;;;;;;5094169;28;20035;-77
2022/01/19 03:32:10;;;;;;;44.43;21.10;;;4.20;99.90;;;;;;5093007;28;20028;-77
2022/01/19 03:34:36;;;;;;;40.43;19.00;;;4.30;99.90;;;;;;5076070;28;20361;-77
2022/01/19 03:37:03;;;;;;;44.90;18.80;;;4.30;99.90;;;;;;5093989;28;20028;-71
2022/01/19 03:39:30;;;;;;;46.20;19.93;;;4.30;99.90;;;;;;5076081;28;20073;-70
2022/01/19 03:41:55;;;;;;;46.07;20.83;;;4.30;99.90;;;;;;5075879;28;20028;-70
2022/01/19 03:44:21;;;;;;;46.93;20.87;;;4.20;99.90;;;;;;5094026;28;20439;-78
2022/01/19 03:47:01;;;;;;;44.03;18.63;;;4.20;99.90;;;;;;5092644;28;20058;-78
2022/01/19 03:49:29;;;;;;;40.37;19.23;;;4.20;99.90;;;;;;5077682;28;20028;-77
2022/01/19 03:51:58;;;;;;;42.57;20.10;;;4.10;99.90;;;;;;5092715;28;20029;-78
2022/01/19 03:54:29;;;;;;;42.03;18.33;;;4.00;99.90;;;;;;5094000;28;20020;-78
2022/01/19 03:56:55;;;;;;;42.47;18.47;;;4.00;99.90;;;;;;5092971;28;20157;-78
2022/01/19 03:59:21;;;;;;;41.13;17.97;;;4.00;99.90;;;;;;5093819;28;20483;-77
2022/01/19 04:01:47;;;;;;;44.60;19.60;;;3.90;99.90;;;;;;5093835;28;20047;-80
2022/01/19 04:06:58;;;;;;;40.03;18.63;;;3.90;99.90;;;;;;5094145;28;20053;-70
2022/01/19 04:09:25;;;;;;;41.47;19.13;;;3.80;99.90;;;;;;5092490;28;20024;-71
2022/01/19 04:11:51;;;;;;;40.43;17.67;;;3.80;99.90;;;;;;5093491;28;20200;-70
2022/01/19 04:14:25;;;;;;;40.67;18.33;;;3.80;99.90;;;;;;5093462;28;20020;-70
2022/01/19 04:16:53;;;;;;;39.42;19.30;;;3.80;99.90;;;;;;5092633;28;20028;-70
2022/01/19 04:19:32;;;;;;;40.33;18.57;;;3.80;99.90;;;;;;5092225;28;20031;-72
2022/01/19 04:22:00;;;;;;;41.37;17.60;;;3.80;99.90;;;;;;5076881;28;20024;-70
2022/01/19 04:24:27;;;;;;;41.20;18.63;;;3.80;99.90;;;;;;5093383;28;20016;-72
2022/01/19 04:29:38;;;;;;;35.03;16.50;;;3.80;99.90;;;;;;5092388;28;20471;-70
2022/01/19 04:32:10;;;;;;;38.53;18.03;;;3.70;99.90;;;;;;5092082;28;20055;-70
2022/01/19 04:34:38;;;;;;;40.63;18.50;;;3.70;99.90;;;;;;5076040;28;20034;-72
2022/01/19 04:45:56;;;;;;;38.75;16.92;;;3.60;99.90;;;;;;5093551;28;20081;-79
2022/01/19 05:06:48;;;;;;;36.27;17.37;;;3.40;99.90;;;;;;5092908;28;20032;-72
2022/01/19 05:09:51;;;;;;;32.67;15.50;;;3.40;99.90;;;;;;5091533;28;20032;-73
2022/01/19 05:14:55;;;;;;;32.67;14.98;;;3.40;99.90;;;;;;5092107;28;20511;-72
2022/01/19 05:17:21;;;;;;;35.10;16.20;;;3.40;99.90;;;;;;5094327;28;20032;-72
2022/01/19 05:19:46;;;;;;;37.33;15.90;;;3.40;99.90;;;;;;5095598;28;20028;-72
2022/01/19 05:22:12;;;;;;;44.50;18.47;;;3.40;99.90;;;;;;5095557;28;20540;-70
2022/01/19 05:24:37;;;;;;;40.13;18.83;;;3.50;99.90;;;;;;5095511;28;20035;-72
2022/01/19 05:27:03;;;;;;;35.80;17.83;;;3.50;99.90;;;;;;5095385;28;20036;-71
2022/01/19 05:29:30;;;;;;;35.20;18.03;;;3.50;99.90;;;;;;5096430;28;20028;-71
2022/01/19 05:31:55;;;;;;;39.70;20.10;;;3.60;99.90;;;;;;5095586;28;20395;-72
2022/01/19 05:34:21;;;;;;;36.23;19.83;;;3.60;99.90;;;;;;5078342;28;20143;-71
2022/01/19 05:36:46;;;;;;;39.63;19.83;;;3.70;99.90;;;;;;5095201;28;20055;-71
2022/01/19 05:39:12;;;;;;;34.17;18.73;;;3.70;99.90;;;;;;5095203;28;20024;-71
2022/01/19 05:41:38;;;;;;;39.33;19.67;;;3.70;99.90;;;;;;5096281;28;20036;-72
2022/01/19 05:44:04;;;;;;;35.43;19.43;;;3.70;99.90;;;;;;5095078;28;20073;-71
2022/01/19 05:46:29;;;;;;;33.10;18.57;;;3.70;99.90;;;;;;5078159;28;20040;-71
2022/01/19 05:48:55;;;;;;;35.27;19.70;;;3.70;99.90;;;;;;5094897;28;20069;-72
2022/01/19 05:51:20;;;;;;;38.20;21.20;;;3.70;99.90;;;;;;5077940;28;20077;-72
2022/01/19 05:53:46;;;;;;;35.77;19.80;;;3.70;99.90;;;;;;5094799;28;20032;-72
2022/01/19 05:56:12;;;;;;;38.50;20.50;;;3.60;99.90;;;;;;5094877;28;20456;-72
2022/01/19 05:58:37;;;;;;;36.10;20.63;;;3.60;99.90;;;;;;5094906;28;20036;-71
2022/01/19 06:01:03;;;;;;;43.53;23.90;;;3.60;99.90;;;;;;5094774;28;20119;-71
2022/01/19 06:03:28;;;;;;;42.00;23.57;;;3.60;99.90;;;;;;5094466;28;20089;-71
2022/01/19 06:05:54;;;;;;;45.27;24.03;;;3.60;99.90;;;;;;5094742;28;20476;-71
2022/01/19 06:10:47;;;;;;;43.57;22.57;;;3.50;99.90;;;;;;5094550;28;20058;-71
2022/01/19 06:13:18;;;;;;;44.47;22.50;;;3.50;99.90;;;;;;5094358;28;20024;-72
2022/01/19 06:15:45;;;;;;;38.07;22.33;;;3.50;99.90;;;;;;5101853;28;20027;-71
2022/01/19 06:18:11;;;;;;;45.10;24.03;;;3.60;99.90;;;;;;5113252;28;20031;-71
2022/01/19 06:20:38;;;;;;;45.80;23.67;;;3.60;99.90;;;;;;5112780;28;20120;-71
2022/01/19 06:23:04;;;;;;;46.63;24.73;;;3.60;99.90;;;;;;5113040;28;20030;-71
2022/01/19 06:25:30;;;;;;;48.70;25.43;;;3.60;99.90;;;;;;5113640;28;20036;-71
2022/01/19 06:27:56;;;;;;;56.73;27.67;;;3.60;99.90;;;;;;5113521;28;20039;-71
2022/01/19 06:30:22;;;;;;;54.80;26.73;;;3.60;99.90;;;;;;5112553;28;20059;-71
2022/01/19 06:32:48;;;;;;;53.97;26.43;;;3.60;99.90;;;;;;5115023;28;20062;-71
2022/01/19 06:35:14;;;;;;;52.53;25.83;;;3.60;99.90;;;;;;5115592;28;20486;-71
2022/01/19 06:37:40;;;;;;;52.43;26.77;;;3.60;99.90;;;;;;5115490;28;20027;-71
2022/01/19 06:40:09;;;;;;;58.30;28.20;;;3.60;99.90;;;;;;5110691;28;20036;-71
2022/01/19 06:42:35;;;;;;;64.63;30.60;;;3.60;99.90;;;;;;5115236;28;20031;-78
2022/01/19 06:45:02;;;;;;;75.40;31.93;;;3.60;99.90;;;;;;5110111;28;20629;-80
2022/01/19 06:47:27;;;;;;;69.27;29.90;;;3.60;99.90;;;;;;5115507;28;20034;-78
2022/01/19 06:49:53;;;;;;;80.93;33.40;;;3.60;99.90;;;;;;5092345;28;20131;-71
2022/01/19 06:52:19;;;;;;;64.90;32.80;;;3.60;99.90;;;;;;5114702;28;20080;-79
2022/01/19 06:54:44;;;;;;;69.13;32.13;;;3.60;99.90;;;;;;5113034;28;20032;-78
2022/01/19 06:57:10;;;;;;;64.77;31.57;;;3.60;99.90;;;;;;5112460;28;20040;-78
2022/01/19 06:59:36;;;;;;;62.23;30.83;;;3.60;99.90;;;;;;5080178;28;20031;-78
2022/01/19 07:02:01;;;;;;;70.70;33.50;;;3.60;99.90;;;;;;5115188;28;20032;-78
2022/01/19 07:04:27;;;;;;;74.87;31.70;;;3.60;99.90;;;;;;5113870;28;20020;-84
2022/01/19 07:06:53;;;;;;;70.63;32.30;;;3.60;99.90;;;;;;5114026;28;20031;-77
2022/01/19 07:09:18;;;;;;;72.90;32.93;;;3.60;99.90;;;;;;5113599;28;20028;-78
2022/01/19 07:11:44;;;;;;;72.97;33.57;;;3.60;99.90;;;;;;5079523;28;20056;-78
2022/01/19 07:14:12;;;;;;;66.90;32.07;;;3.60;99.90;;;;;;5113665;28;20023;-78
2022/01/19 07:16:39;;;;;;;68.73;31.43;;;3.60;99.90;;;;;;5112633;28;20031;-79
2022/01/19 07:19:04;;;;;;;68.03;32.60;;;3.60;99.90;;;;;;5114596;28;20035;-78
2022/01/19 07:21:30;;;;;;;70.03;33.13;;;3.60;99.90;;;;;;5113355;28;20080;-79
2022/01/19 07:23:56;;;;;;;63.97;32.50;;;3.60;99.90;;;;;;5113054;28;20057;-79
2022/01/19 07:26:22;;;;;;;71.87;33.87;;;3.60;99.90;;;;;;5114447;28;20126;-79
2022/01/19 07:28:48;;;;;;;65.37;30.27;;;3.60;99.90;;;;;;5114228;28;20071;-80
2022/01/19 07:31:14;;;;;;;64.80;30.97;;;3.60;99.90;;;;;;5114177;28;20032;-79
2022/01/19 07:33:39;;;;;;;67.17;30.87;;;3.50;99.90;;;;;;5113250;28;20817;-79
2022/01/19 07:36:05;;;;;;;68.60;32.17;;;3.60;99.90;;;;;;5114605;28;20035;-79
2022/01/19 07:38:31;;;;;;;70.57;31.20;;;3.60;99.90;;;;;;5095694;28;20422;-78
2022/01/19 07:40:56;;;;;;;72.30;29.50;;;3.60;99.90;;;;;;5112751;28;20028;-71
2022/01/19 07:43:22;;;;;;;62.67;30.73;;;3.60;99.90;;;;;;5096012;28;20012;-71
2022/01/19 07:45:48;;;;;;;67.23;31.30;;;3.60;99.90;;;;;;5114219;28;20052;-71
2022/01/19 07:48:14;;;;;;;64.43;30.27;;;3.60;99.90;;;;;;5114338;28;20024;-71
2022/01/19 07:50:39;;;;;;;54.00;27.40;;;3.60;99.90;;;;;;5112845;28;20030;-71
2022/01/19 07:53:06;;;;;;;61.07;27.67;;;3.60;99.90;;;;;;5112848;28;20039;-71
2022/01/19 07:55:32;;;;;;;61.33;29.53;;;3.60;99.90;;;;;;5114110;28;20479;-71
2022/01/19 07:57:57;;;;;;;54.07;29.00;;;3.70;99.90;;;;;;5113343;28;20032;-71
2022/01/19 08:00:23;;;;;;;63.13;31.37;;;3.70;99.90;;;;;;5113938;28;20438;-71
2022/01/19 08:02:49;;;;;;;63.30;31.67;;;3.70;99.90;;;;;;5112839;28;20059;-71
2022/01/19 08:05:16;;;;;;;59.17;28.97;;;3.70;99.90;;;;;;5095963;28;20058;-71
2022/01/19 08:07:42;;;;;;;61.27;30.33;;;3.70;99.90;;;;;;5113758;28;20028;-71
2022/01/19 08:10:10;;;;;;;62.57;30.37;;;3.80;99.90;;;;;;5112770;28;20128;-79
2022/01/19 08:12:35;;;;;;;63.90;29.60;;;3.80;99.90;;;;;;5112822;28;20077;-78
2022/01/19 08:15:01;;;;;;;58.50;30.23;;;3.80;99.90;;;;;;5115263;28;20035;-78
2022/01/19 08:17:28;;;;;;;62.97;29.90;;;3.80;99.90;;;;;;5113518;28;20110;-78
2022/01/19 08:19:54;;;;;;;61.27;30.00;;;3.80;99.90;;;;;;5113662;28;20035;-77
2022/01/19 08:22:20;;;;;;;67.30;30.53;;;3.80;99.90;;;;;;5098434;28;20065;-77
2022/01/19 08:24:46;;;;;;;60.67;31.00;;;3.80;99.90;;;;;;5095716;28;20028;-78
2022/01/19 08:27:12;;;;;;;64.47;31.97;;;3.90;99.90;;;;;;5115682;28;20436;-76
2022/01/19 08:29:38;;;;;;;58.60;29.93;;;3.90;99.90;;;;;;5081880;28;20043;-77
2022/01/19 08:32:05;;;;;;;58.90;29.77;;;3.90;99.90;;;;;;5094393;28;20391;-78
2022/01/19 08:34:31;;;;;;;53.93;26.97;;;3.90;99.90;;;;;;5078502;28;20036;-78
2022/01/19 08:36:58;;;;;;;50.67;25.80;;;3.90;99.90;;;;;;5113820;28;20061;-78
2022/01/19 08:39:24;;;;;;;53.23;27.47;;;3.90;99.90;;;;;;5113424;28;20506;-79
2022/01/19 08:41:50;;;;;;;54.63;29.13;;;3.90;99.90;;;;;;5113058;28;20115;-80
2022/01/19 08:44:16;;;;;;;52.83;26.97;;;3.90;99.90;;;;;;5114379;28;20051;-79
2022/01/19 08:46:42;;;;;;;47.23;26.20;;;3.90;99.90;;;;;;5112813;28;20443;-79
2022/01/19 08:49:07;;;;;;;57.27;27.57;;;3.90;99.90;;;;;;5112579;28;20372;-79
2022/01/19 08:51:33;;;;;;;53.90;26.17;;;4.00;99.90;;;;;;5115670;28;20475;-78
2022/01/19 08:53:59;;;;;;;50.13;27.27;;;4.00;99.90;;;;;;5117507;28;20116;-79
2022/01/19 08:56:25;;;;;;;49.50;27.57;;;4.00;99.90;;;;;;5116068;28;20031;-79
2022/01/19 08:58:50;;;;;;;56.50;29.10;;;4.00;99.90;;;;;;5117643;28;20512;-80
2022/01/19 09:01:16;;;;;;;61.57;31.17;;;4.00;99.90;;;;;;5099238;28;20023;-79
2022/01/19 09:03:42;;;;;;;50.47;28.83;;;4.00;99.90;;;;;;5116913;28;20368;-72
2022/01/19 09:06:07;;;;;;;54.40;28.43;;;4.10;99.90;;;;;;5099036;28;20068;-72
2022/01/19 09:08:34;;;;;;;54.27;30.73;;;4.10;99.90;;;;;;5116931;28;20437;-71
2022/01/19 09:11:01;;;;;;;55.53;28.10;;;4.10;99.90;;;;;;5115422;28;20050;-72
2022/01/19 09:13:27;;;;;;;54.73;27.27;;;4.10;99.90;;;;;;5117270;28;20027;-71
2022/01/19 09:15:53;;;;;;;53.80;28.07;;;4.00;99.90;;;;;;5117138;28;20026;-71
2022/01/19 09:18:19;;;;;;;55.20;29.70;;;4.10;99.90;;;;;;5115848;28;20027;-71
2022/01/19 09:20:45;;;;;;;50.10;27.40;;;4.10;99.90;;;;;;5115902;28;20394;-71
2022/01/19 09:23:10;;;;;;;53.40;28.57;;;4.10;99.90;;;;;;5116515;28;20027;-71
2022/01/19 09:25:36;;;;;;;45.20;26.70;;;4.20;99.90;;;;;;5115668;28;20050;-71
2022/01/19 09:28:02;;;;;;;53.97;28.57;;;4.10;99.90;;;;;;5115751;28;20043;-72
2022/01/19 09:30:28;;;;;;;53.97;28.90;;;4.20;99.90;;;;;;5115604;28;20032;-71
2022/01/19 09:33:40;;;;;;;57.27;30.17;;;4.20;99.90;;;;;;5115550;28;20468;-71
2022/01/19 09:38:18;;;;;;;50.27;28.30;;;4.20;99.90;;;;;;5116717;28;20040;-78
2022/01/19 09:40:44;;;;;;;50.53;27.77;;;4.20;99.90;;;;;;5080864;28;20539;-79
2022/01/19 09:43:10;;;;;;;47.73;27.07;;;4.20;99.90;;;;;;5115618;28;20115;-79
2022/01/19 09:45:35;;;;;;;49.60;26.40;;;4.20;99.90;;;;;;5114158;28;20031;-79
2022/01/19 09:48:01;;;;;;;49.50;27.40;;;4.20;99.90;;;;;;5116320;28;20118;-79
2022/01/19 09:50:27;;;;;;;49.20;27.00;;;4.30;99.90;;;;;;5116587;27;20039;-78
2022/01/19 09:52:54;;;;;;;54.70;27.07;;;4.20;99.90;;;;;;5116711;28;20418;-79
2022/01/19 09:55:20;;;;;;;46.67;27.20;;;4.20;99.90;;;;;;5116557;28;20421;-83
2022/01/19 09:57:46;;;;;;;50.23;26.93;;;4.30;99.90;;;;;;5115471;28;20110;-78
2022/01/19 10:00:12;;;;;;;46.90;26.00;;;4.30;99.90;;;;;;5115248;28;20031;-79
2022/01/19 10:02:37;;;;;;;49.63;26.57;;;4.30;99.90;;;;;;5114309;28;20044;-79
2022/01/19 10:05:08;;;;;;;48.30;26.30;;;4.30;99.90;;;;;;5115044;28;20036;-79
2022/01/19 10:07:33;;;;;;;50.97;26.73;;;4.30;99.90;;;;;;5116670;28;20080;-79
2022/01/19 10:10:05;;;;;;;45.40;27.13;;;4.40;99.90;;;;;;5115073;28;20437;-79
2022/01/19 10:18:18;;;;;;;44.10;25.27;;;4.40;99.90;;;;;;5116136;28;20055;-79
2022/01/19 10:20:46;;;;;;;47.70;25.50;;;4.40;99.90;;;;;;5116098;28;20028;-81
2022/01/19 10:23:36;;;;;;;49.93;27.50;;;4.50;99.90;;;;;;5114697;28;20027;-79
2022/01/19 10:26:04;;;;;;;43.63;24.67;;;4.40;99.90;;;;;;5115917;28;20037;-73
2022/01/19 10:28:30;;;;;;;43.83;25.63;;;4.40;99.90;;;;;;5115989;28;20379;-79
2022/01/19 10:30:59;;;;;;;38.43;22.83;;;4.50;99.90;;;;;;5114532;28;20030;-73
2022/01/19 10:33:25;;;;;;;47.27;25.93;;;4.50;99.90;;;;;;5116049;28;20034;-78
2022/01/19 10:35:50;;;;;;;46.67;26.03;;;4.50;99.90;;;;;;5115623;28;20043;-79
2022/01/19 10:38:25;;;;;;;48.37;25.70;;;4.60;99.90;;;;;;5115709;28;20028;-73
2022/01/19 10:40:59;;;;;;;41.00;23.07;;;4.60;99.90;;;;;;5115593;27;20429;-74
2022/01/19 10:43:28;;;;;;;;;;;4.60;99.90;;;;;;5116211;28;20066;-79
2022/01/19 10:45:55;;;;;;;37.20;22.37;;;4.70;99.90;;;;;;5112969;28;19907;-78
2022/01/19 10:48:38;;;;;;;44.20;22.90;;;4.70;99.90;;;;;;5080556;28;20081;-78
2022/01/19 10:51:09;;;;;;;42.20;24.77;;;4.70;99.90;;;;;;5114893;28;20039;-74
2022/01/19 10:53:36;;;;;;;43.07;23.33;;;4.70;99.90;;;;;;5114314;28;20028;-74
2022/01/19 10:56:05;;;;;;;46.13;24.53;;;4.80;99.90;;;;;;5113624;28;20089;-73
2022/01/19 10:58:31;;;;;;;44.80;23.13;;;4.70;99.90;;;;;;5114005;28;20023;-78
2022/01/19 11:00:57;;;;;;;40.63;24.77;;;4.80;99.90;;;;;;5090279;28;20042;-74
2022/01/19 11:03:27;;;;;;;44.87;25.53;;;4.80;99.90;;;;;;5113341;28;20024;-78
2022/01/19 11:05:58;;;;;;;45.53;24.23;;;4.80;99.90;;;;;;5113381;28;20120;-78
2022/01/19 11:08:26;;;;;;;44.10;24.70;;;4.80;99.90;;;;;;5112354;28;20058;-79
2022/01/19 11:10:55;;;;;;;43.13;25.93;;;4.80;99.90;;;;;;5112945;28;20128;-78
2022/01/19 11:13:32;;;;;;;49.00;28.03;;;4.90;99.90;;;;;;5114227;27;20169;-78
2022/01/19 11:15:59;;;;;;;44.43;25.07;;;4.80;99.90;;;;;;5113160;28;20031;-79
2022/01/19 11:18:26;;;;;;;43.60;24.73;;;4.90;99.90;;;;;;5094034;28;20032;-74
2022/01/19 11:20:53;;;;;;;44.23;23.57;;;4.90;99.90;;;;;;5113161;28;20063;-78
2022/01/19 11:23:37;;;;;;;40.33;22.67;;;4.90;99.90;;;;;;5079404;28;20032;-78
2022/01/19 11:26:09;;;;;;;42.72;24.30;;;4.90;99.90;;;;;;5111892;28;20034;-74
2022/01/19 11:28:38;;;;;;;42.23;25.50;;;4.80;99.90;;;;;;5092402;28;20078;-77
2022/01/19 11:31:23;;;;;;;48.40;26.20;;;4.90;99.90;;;;;;5094113;28;20494;-77
2022/01/19 11:33:56;;;;;;;48.57;25.83;;;4.90;99.90;;;;;;5094200;28;20024;-79
2022/01/19 11:36:42;;;;;;;41.53;23.83;;;5.00;99.90;;;;;;5108848;28;20374;-78
2022/01/19 11:39:11;;;;;;;50.53;28.03;;;4.90;99.90;;;;;;5111200;28;20030;-73
2022/01/19 11:41:57;;;;;;;48.97;26.93;;;5.00;99.90;;;;;;5113075;28;20114;-72
2022/01/19 11:44:32;;;;;;;45.37;26.97;;;5.00;99.90;;;;;;5114352;28;20043;-74
2022/01/19 11:47:11;;;;;;;47.60;26.60;;;5.00;99.90;;;;;;5113076;28;20055;-77
2022/01/19 11:49:58;;;;;;;38.80;24.10;;;5.10;99.90;;;;;;5114382;28;20019;-77
2022/01/19 11:52:46;;;;;;;44.50;25.10;;;5.10;99.90;;;;;;5112838;28;20080;-73
2022/01/19 11:55:20;;;;;;;47.23;26.90;;;5.10;99.90;;;;;;5099863;28;20032;-74
2022/01/19 11:57:48;;;;;;;35.88;21.33;;;5.10;99.90;;;;;;5112566;28;20074;-73
2022/01/19 12:00:30;;;;;;;47.40;24.93;;;5.20;99.90;;;;;;5113022;28;20024;-73
2022/01/19 12:02:58;;;;;;;46.30;25.67;;;5.10;99.90;;;;;;5113020;28;20078;-78
2022/01/19 12:05:24;;;;;;;43.87;25.43;;;5.20;99.90;;;;;;5114598;28;20037;-72
2022/01/19 12:07:59;;;;;;;49.50;27.03;;;5.20;99.90;;;;;;5113921;28;20509;-72
2022/01/19 12:10:31;;;;;;;48.03;26.70;;;5.20;99.90;;;;;;5112344;28;20027;-72
2022/01/19 12:16:19;;;;;;;43.33;25.63;;;5.20;99.90;;;;;;5113496;28;20459;-72
2022/01/19 12:19:00;;;;;;;44.83;26.60;;;5.20;99.90;;;;;;5113757;28;20421;-74
2022/01/19 12:21:32;;;;;;;49.60;26.63;;;5.20;99.90;;;;;;5113760;28;20024;-72
2022/01/19 12:24:21;;;;;;;46.43;26.50;;;5.20;99.90;;;;;;5112390;28;20027;-72
2022/01/19 12:27:14;;;;;;;47.60;27.40;;;5.20;99.90;;;;;;5113267;28;20028;-72
2022/01/19 12:29:44;;;;;;;45.23;27.10;;;5.30;99.90;;;;;;5113252;28;20391;-72
2022/01/19 12:32:15;;;;;;;45.93;27.13;;;5.40;99.90;;;;;;5113615;28;20095;-72
2022/01/19 12:34:53;;;;;;;43.83;25.90;;;5.50;99.90;;;;;;5113520;28;20428;-72
2022/01/19 12:37:37;;;;;;;45.60;25.90;;;5.60;99.90;;;;;;5111667;28;20099;-73
2022/01/19 12:40:18;;;;;;;40.47;25.55;;;5.60;99.90;;;;;;5113526;28;20081;-72
2022/01/19 12:42:55;;;;;;;46.53;27.73;;;5.60;99.90;;;;;;5113412;28;20028;-73
2022/01/19 12:45:27;;;;;;;40.77;25.57;;;5.70;99.90;;;;;;5113447;28;20056;-73
2022/01/19 12:48:01;;;;;;;52.97;27.30;;;5.70;99.90;;;;;;5113434;28;20230;-73
2022/01/19 12:50:26;;;;;;;38.00;24.52;;;5.70;99.90;;;;;;5112147;28;20035;-72
2022/01/19 12:53:04;;;;;;;45.30;26.10;;;5.70;99.90;;;;;;5112065;28;20031;-72
2022/01/19 12:55:34;;;;;;;41.17;25.83;;;5.80;99.80;;;;;;5113268;28;20047;-73
2022/01/19 12:58:07;;;;;;;44.50;26.67;;;5.70;99.80;;;;;;5112076;28;20012;-72
2022/01/19 13:00:34;;;;;;;47.58;26.50;;;5.70;99.70;;;;;;5111452;28;20032;-72
2022/01/19 13:03:11;;;;;;;45.50;26.60;;;5.70;99.70;;;;;;5113023;28;20031;-73
2022/01/19 13:05:45;;;;;;;45.10;27.33;;;5.70;99.70;;;;;;5111907;28;20115;-73
2022/01/19 13:08:10;;;;;;;48.20;29.55;;;5.60;99.60;;;;;;5112137;28;20078;-73
2022/01/19 13:10:45;;;;;;;47.60;27.07;;;5.80;99.60;;;;;;5111719;28;20511;-74
2022/01/19 13:13:13;;;;;;;47.53;27.63;;;5.70;99.70;;;;;;5079179;28;20033;-73
2022/01/19 13:15:42;;;;;;;49.07;28.23;;;5.70;99.60;;;;;;5094487;28;20387;-73
2022/01/19 13:18:09;;;;;;;51.80;29.70;;;5.70;99.70;;;;;;5112509;28;20024;-73
2022/01/19 13:20:35;;;;;;;48.37;26.20;;;5.70;99.60;;;;;;5111638;28;20047;-73
2022/01/19 13:23:01;;;;;;;46.33;26.53;;;5.70;99.80;;;;;;5111189;28;20063;-74
2022/01/19 13:25:29;;;;;;;47.97;28.37;;;5.80;99.80;;;;;;5094937;28;20028;-73
2022/01/19 13:27:57;;;;;;;52.27;28.87;;;5.70;99.70;;;;;;5111356;28;20027;-73
2022/01/19 13:30:25;;;;;;;45.70;27.27;;;5.80;99.70;;;;;;5112318;28;20410;-73
2022/01/19 13:32:51;;;;;;;46.53;28.73;;;5.70;99.70;;;;;;5112931;28;20098;-73
2022/01/19 13:35:18;;;;;;;48.23;29.80;;;5.80;99.70;;;;;;5111814;28;20028;-73
2022/01/19 13:37:58;;;;;;;51.13;30.07;;;5.70;99.60;;;;;;5113409;28;20020;-78
2022/01/19 13:40:29;;;;;;;43.50;27.03;;;5.70;99.60;;;;;;5115094;28;20047;-77
2022/01/19 13:42:56;;;;;;;53.53;31.57;;;5.80;99.60;;;;;;5116888;28;20104;-78
2022/01/19 13:45:36;;;;;;;47.47;29.03;;;5.90;99.60;;;;;;5116685;27;20023;-78
2022/01/19 13:50:40;;;;;;;49.10;29.40;;;5.80;99.60;;;;;;5116205;28;20035;-73
2022/01/19 13:53:06;;;;;;;56.10;31.27;;;5.80;99.50;;;;;;5116422;28;20026;-73
2022/01/19 13:55:33;;;;;;;58.77;33.03;;;5.70;99.50;;;;;;5116446;28;20016;-73
2022/01/19 13:58:14;;;;;;;53.07;30.37;;;5.70;99.60;;;;;;5115053;28;20057;-72
2022/01/19 14:00:50;;;;;;;58.73;29.73;;;5.70;99.60;;;;;;5115041;28;20041;-73
2022/01/19 14:03:17;;;;;;;59.53;31.00;;;5.70;99.60;;;;;;5115059;28;20111;-73
2022/01/19 14:05:47;;;;;;;56.43;29.73;;;5.70;99.70;;;;;;5088885;28;20036;-73
2022/01/19 14:08:13;;;;;;;54.00;31.43;;;5.70;99.80;;;;;;5093400;28;20035;-78
2022/01/19 14:10:42;;;;;;;55.27;31.37;;;5.70;99.80;;;;;;5076990;28;20059;-73
2022/01/19 14:13:28;;;;;;;56.87;31.53;;;5.70;99.80;;;;;;5095721;28;20024;-72